sensor_id;sensor_type;location;lat;lon;timestamp;pressure;altitude;pressure_sealevel;temperature;humidity
31044;BME280;17710;52.520;13.352;2024-02-28T00:02:09;101508.25;;;10.55;72.74
31044;BME280;17710;52.520;13.352;2024-02-28T00:04:36;101507.25;;;10.60;72.82
31044;BME280;17710;52.520;13.352;2024-02-28T00:07:02;101506.31;;;10.63;72.18
31044;BME280;17710;52.520;13.352;2024-02-28T00:09:29;101500.06;;;10.65;72.59
31044;BME280;17710;52.520;13.352;2024-02-28T00:11:55;101496.25;;;10.77;72.52
31044;BME280;17710;52.520;13.352;2024-02-28T00:14:21;101501.41;;;10.46;73.24
31044;BME280;17710;52.520;13.352;2024-02-28T00:16:48;101496.56;;;10.28;73.74
31044;BME280;17710;52.520;13.352;2024-02-28T00:19:17;101490.06;;;10.43;73.57
31044;BME280;17710;52.520;13.352;2024-02-28T00:21:44;101495.13;;;10.52;73.79
31044;BME280;17710;52.520;13.352;2024-02-28T00:24:10;101494.38;;;10.45;73.42
31044;BME280;17710;52.520;13.352;2024-02-28T00:26:39;101500.16;;;10.62;72.94
31044;BME280;17710;52.520;13.352;2024-02-28T00:29:06;101499.31;;;10.60;72.93
31044;BME280;17710;52.520;13.352;2024-02-28T00:31:32;101490.25;;;10.33;74.26
31044;BME280;17710;52.520;13.352;2024-02-28T00:33:59;101495.13;;;10.50;74.57
31044;BME280;17710;52.520;13.352;2024-02-28T00:36:27;101495.41;;;10.39;75.10
31044;BME280;17710;52.520;13.352;2024-02-28T00:38:53;101495.25;;;10.46;75.06
31044;BME280;17710;52.520;13.352;2024-02-28T00:41:20;101492.44;;;10.53;74.40
31044;BME280;17710;52.520;13.352;2024-02-28T00:43:46;101496.47;;;10.31;75.64
31044;BME280;17710;52.520;13.352;2024-02-28T00:46:13;101493.56;;;10.43;75.42
31044;BME280;17710;52.520;13.352;2024-02-28T00:48:39;101493.84;;;10.69;74.23
31044;BME280;17710;52.520;13.352;2024-02-28T00:51:06;101494.94;;;10.21;75.63
31044;BME280;17710;52.520;13.352;2024-02-28T00:53:34;101493.22;;;10.20;76.30
31044;BME280;17710;52.520;13.352;2024-02-28T00:56:01;101489.25;;;10.39;75.42
31044;BME280;17710;52.520;13.352;2024-02-28T00:58:27;101486.78;;;10.31;75.37
31044;BME280;17710;52.520;13.352;2024-02-28T01:00:55;101492.19;;;10.25;75.02
31044;BME280;17710;52.520;13.352;2024-02-28T01:03:21;101494.34;;;10.07;75.20
31044;BME280;17710;52.520;13.352;2024-02-28T01:05:48;101498.75;;;10.06;76.08
31044;BME280;17710;52.520;13.352;2024-02-28T01:08:15;101507.84;;;9.91;76.33
31044;BME280;17710;52.520;13.352;2024-02-28T01:10:43;101505.69;;;9.69;78.13
31044;BME280;17710;52.520;13.352;2024-02-28T01:13:10;101509.06;;;9.77;78.35
31044;BME280;17710;52.520;13.352;2024-02-28T01:15:36;101512.50;;;9.79;78.37
31044;BME280;17710;52.520;13.352;2024-02-28T01:18:03;101512.34;;;9.88;78.19
31044;BME280;17710;52.520;13.352;2024-02-28T01:20:28;101506.19;;;10.30;76.28
31044;BME280;17710;52.520;13.352;2024-02-28T01:22:54;101510.94;;;10.12;76.11
31044;BME280;17710;52.520;13.352;2024-02-28T01:25:21;101514.84;;;9.95;76.63
31044;BME280;17710;52.520;13.352;2024-02-28T01:27:51;101518.81;;;10.15;77.23
31044;BME280;17710;52.520;13.352;2024-02-28T01:30:17;101511.38;;;10.33;75.25
31044;BME280;17710;52.520;13.352;2024-02-28T01:32:44;101512.22;;;10.37;74.93
31044;BME280;17710;52.520;13.352;2024-02-28T01:35:11;101501.66;;;10.37;74.73
31044;BME280;17710;52.520;13.352;2024-02-28T01:37:38;101499.94;;;10.33;74.88
31044;BME280;17710;52.520;13.352;2024-02-28T01:40:06;101497.41;;;10.28;74.66
31044;BME280;17710;52.520;13.352;2024-02-28T01:42:32;101496.53;;;10.29;74.59
31044;BME280;17710;52.520;13.352;2024-02-28T01:45:00;101498.34;;;10.26;75.25
31044;BME280;17710;52.520;13.352;2024-02-28T01:47:27;101493.66;;;10.38;74.40
31044;BME280;17710;52.520;13.352;2024-02-28T01:49:53;101498.00;;;10.43;74.20
31044;BME280;17710;52.520;13.352;2024-02-28T01:52:21;101501.06;;;10.23;74.14
31044;BME280;17710;52.520;13.352;2024-02-28T01:54:48;101493.81;;;10.31;73.93
31044;BME280;17710;52.520;13.352;2024-02-28T01:57:14;101498.06;;;10.38;72.67
31044;BME280;17710;52.520;13.352;2024-02-28T01:59:41;101496.25;;;10.42;72.13
31044;BME280;17710;52.520;13.352;2024-02-28T02:02:09;101499.16;;;10.29;72.44
31044;BME280;17710;52.520;13.352;2024-02-28T02:04:36;101497.63;;;10.19;72.58
31044;BME280;17710;52.520;13.352;2024-02-28T02:07:02;101494.66;;;10.33;72.14
31044;BME280;17710;52.520;13.352;2024-02-28T02:09:29;101490.53;;;10.21;72.32
31044;BME280;17710;52.520;13.352;2024-02-28T02:11:55;101483.53;;;10.19;72.67
31044;BME280;17710;52.520;13.352;2024-02-28T02:14:21;101490.69;;;10.12;72.61
31044;BME280;17710;52.520;13.352;2024-02-28T02:16:48;101489.63;;;10.24;72.22
31044;BME280;17710;52.520;13.352;2024-02-28T02:19:16;101497.88;;;10.06;72.82
31044;BME280;17710;52.520;13.352;2024-02-28T02:21:49;101501.41;;;10.05;73.26
31044;BME280;17710;52.520;13.352;2024-02-28T02:24:17;101499.50;;;10.13;73.01
31044;BME280;17710;52.520;13.352;2024-02-28T02:26:43;101497.47;;;10.25;72.27
31044;BME280;17710;52.520;13.352;2024-02-28T02:29:11;101505.75;;;10.09;72.01
31044;BME280;17710;52.520;13.352;2024-02-28T02:31:38;101510.53;;;10.33;72.02
31044;BME280;17710;52.520;13.352;2024-02-28T02:34:05;101512.00;;;10.45;71.52
31044;BME280;17710;52.520;13.352;2024-02-28T02:36:32;101519.31;;;10.33;71.47
31044;BME280;17710;52.520;13.352;2024-02-28T02:38:58;101525.25;;;10.03;71.86
31044;BME280;17710;52.520;13.352;2024-02-28T02:41:26;101521.50;;;10.12;71.91
31044;BME280;17710;52.520;13.352;2024-02-28T02:43:52;101524.63;;;10.32;71.46
31044;BME280;17710;52.520;13.352;2024-02-28T02:46:19;101530.22;;;10.18;71.08
31044;BME280;17710;52.520;13.352;2024-02-28T02:48:45;101534.69;;;10.13;70.85
31044;BME280;17710;52.520;13.352;2024-02-28T02:51:12;101540.13;;;10.06;70.29
31044;BME280;17710;52.520;13.352;2024-02-28T02:53:38;101546.97;;;10.16;70.04
31044;BME280;17710;52.520;13.352;2024-02-28T02:56:05;101539.06;;;10.14;70.07
31044;BME280;17710;52.520;13.352;2024-02-28T02:58:33;101543.63;;;10.06;70.35
31044;BME280;17710;52.520;13.352;2024-02-28T03:00:59;101547.56;;;9.85;70.84
31044;BME280;17710;52.520;13.352;2024-02-28T03:03:26;101540.84;;;10.14;70.63
31044;BME280;17710;52.520;13.352;2024-02-28T03:05:52;101547.03;;;10.11;70.88
31044;BME280;17710;52.520;13.352;2024-02-28T03:08:18;101539.13;;;10.11;70.45
31044;BME280;17710;52.520;13.352;2024-02-28T03:10:45;101542.97;;;9.96;71.07
31044;BME280;17710;52.520;13.352;2024-02-28T03:13:10;101552.28;;;9.71;72.57
31044;BME280;17710;52.520;13.352;2024-02-28T03:15:37;101560.91;;;9.79;73.02
31044;BME280;17710;52.520;13.352;2024-02-28T03:18:04;101554.63;;;9.85;72.31
31044;BME280;17710;52.520;13.352;2024-02-28T03:20:30;101550.00;;;9.97;72.44
31044;BME280;17710;52.520;13.352;2024-02-28T03:22:57;101550.09;;;9.91;72.16
31044;BME280;17710;52.520;13.352;2024-02-28T03:25:23;101558.06;;;9.90;72.35
31044;BME280;17710;52.520;13.352;2024-02-28T03:27:49;101555.75;;;9.73;72.45
31044;BME280;17710;52.520;13.352;2024-02-28T03:30:16;101554.69;;;9.82;72.74
31044;BME280;17710;52.520;13.352;2024-02-28T03:32:43;101553.03;;;9.78;72.60
31044;BME280;17710;52.520;13.352;2024-02-28T03:35:10;101546.28;;;10.06;70.32
31044;BME280;17710;52.520;13.352;2024-02-28T03:37:36;101540.81;;;10.17;70.71
31044;BME280;17710;52.520;13.352;2024-02-28T03:40:03;101550.56;;;10.12;71.39
31044;BME280;17710;52.520;13.352;2024-02-28T03:42:30;101545.25;;;10.13;70.82
31044;BME280;17710;52.520;13.352;2024-02-28T03:44:57;101546.31;;;10.05;71.25
31044;BME280;17710;52.520;13.352;2024-02-28T03:47:23;101541.13;;;10.00;70.81
31044;BME280;17710;52.520;13.352;2024-02-28T03:49:51;101551.66;;;10.02;70.84
31044;BME280;17710;52.520;13.352;2024-02-28T03:52:17;101546.94;;;10.19;70.48
31044;BME280;17710;52.520;13.352;2024-02-28T03:54:44;101554.03;;;10.14;69.94
31044;BME280;17710;52.520;13.352;2024-02-28T03:57:10;101547.16;;;10.07;70.57
31044;BME280;17710;52.520;13.352;2024-02-28T03:59:37;101552.56;;;10.00;70.66
31044;BME280;17710;52.520;13.352;2024-02-28T04:02:03;101556.91;;;10.03;70.25
31044;BME280;17710;52.520;13.352;2024-02-28T04:04:30;101550.03;;;9.96;70.29
31044;BME280;17710;52.520;13.352;2024-02-28T04:06:58;101558.56;;;10.09;70.00
31044;BME280;17710;52.520;13.352;2024-02-28T04:09:24;101558.47;;;10.12;69.57
31044;BME280;17710;52.520;13.352;2024-02-28T04:11:51;101554.34;;;9.98;69.93
31044;BME280;17710;52.520;13.352;2024-02-28T04:14:17;101555.97;;;9.61;71.44
31044;BME280;17710;52.520;13.352;2024-02-28T04:16:44;101570.31;;;9.92;70.50
31044;BME280;17710;52.520;13.352;2024-02-28T04:19:11;101570.88;;;10.10;69.98
31044;BME280;17710;52.520;13.352;2024-02-28T04:21:37;101566.00;;;9.88;70.26
31044;BME280;17710;52.520;13.352;2024-02-28T04:24:06;101568.00;;;9.77;71.09
31044;BME280;17710;52.520;13.352;2024-02-28T04:26:32;101560.31;;;10.10;70.60
31044;BME280;17710;52.520;13.352;2024-02-28T04:28:59;101560.81;;;10.28;68.92
31044;BME280;17710;52.520;13.352;2024-02-28T04:31:28;101563.50;;;10.27;69.06
31044;BME280;17710;52.520;13.352;2024-02-28T04:33:54;101563.63;;;10.21;68.81
31044;BME280;17710;52.520;13.352;2024-02-28T04:36:21;101577.66;;;10.23;69.42
31044;BME280;17710;52.520;13.352;2024-02-28T04:38:47;101587.72;;;10.03;70.02
31044;BME280;17710;52.520;13.352;2024-02-28T04:41:15;101589.44;;;10.05;69.16
31044;BME280;17710;52.520;13.352;2024-02-28T04:43:41;101584.00;;;9.67;70.69
31044;BME280;17710;52.520;13.352;2024-02-28T04:46:07;101593.66;;;9.69;71.20
31044;BME280;17710;52.520;13.352;2024-02-28T04:48:34;101599.50;;;9.85;70.74
31044;BME280;17710;52.520;13.352;2024-02-28T04:51:00;101594.34;;;9.79;70.86
31044;BME280;17710;52.520;13.352;2024-02-28T04:53:26;101594.41;;;9.77;70.38
31044;BME280;17710;52.520;13.352;2024-02-28T04:55:53;101592.53;;;9.82;69.90
31044;BME280;17710;52.520;13.352;2024-02-28T04:58:21;101596.38;;;9.12;70.89
31044;BME280;17710;52.520;13.352;2024-02-28T05:00:47;101595.91;;;9.41;71.03
31044;BME280;17710;52.520;13.352;2024-02-28T05:03:14;101598.19;;;9.61;70.09
31044;BME280;17710;52.520;13.352;2024-02-28T05:05:40;101601.03;;;9.50;70.26
31044;BME280;17710;52.520;13.352;2024-02-28T05:08:07;101598.97;;;9.15;70.29
31044;BME280;17710;52.520;13.352;2024-02-28T05:10:33;101606.13;;;9.07;69.87
31044;BME280;17710;52.520;13.352;2024-02-28T05:13:00;101608.25;;;8.86;71.06
31044;BME280;17710;52.520;13.352;2024-02-28T05:15:29;101610.81;;;8.90;71.17
31044;BME280;17710;52.520;13.352;2024-02-28T05:17:55;101614.66;;;9.25;70.58
31044;BME280;17710;52.520;13.352;2024-02-28T05:20:22;101625.16;;;9.28;70.30
31044;BME280;17710;52.520;13.352;2024-02-28T05:22:48;101628.56;;;9.34;69.33
31044;BME280;17710;52.520;13.352;2024-02-28T05:25:15;101628.72;;;9.25;69.67
31044;BME280;17710;52.520;13.352;2024-02-28T05:27:41;101633.72;;;9.42;69.44
31044;BME280;17710;52.520;13.352;2024-02-28T05:30:10;101633.28;;;9.14;69.56
31044;BME280;17710;52.520;13.352;2024-02-28T05:32:38;101632.47;;;9.09;69.68
31044;BME280;17710;52.520;13.352;2024-02-28T05:35:05;101634.94;;;9.21;69.79
31044;BME280;17710;52.520;13.352;2024-02-28T05:37:31;101634.91;;;9.24;69.05
31044;BME280;17710;52.520;13.352;2024-02-28T05:39:57;101631.03;;;8.90;70.68
31044;BME280;17710;52.520;13.352;2024-02-28T05:42:24;101627.00;;;8.64;71.78
31044;BME280;17710;52.520;13.352;2024-02-28T05:44:51;101629.75;;;8.54;72.32
31044;BME280;17710;52.520;13.352;2024-02-28T05:47:17;101643.16;;;8.34;72.94
31044;BME280;17710;52.520;13.352;2024-02-28T05:49:45;101645.25;;;8.05;74.42
31044;BME280;17710;52.520;13.352;2024-02-28T05:52:11;101648.09;;;7.83;75.68
31044;BME280;17710;52.520;13.352;2024-02-28T05:54:38;101651.31;;;8.11;74.58
31044;BME280;17710;52.520;13.352;2024-02-28T05:57:04;101657.31;;;8.22;74.72
31044;BME280;17710;52.520;13.352;2024-02-28T05:59:31;101650.91;;;8.49;72.93
31044;BME280;17710;52.520;13.352;2024-02-28T06:01:57;101652.31;;;8.73;72.36
31044;BME280;17710;52.520;13.352;2024-02-28T06:04:24;101657.03;;;9.12;70.96
31044;BME280;17710;52.520;13.352;2024-02-28T06:06:51;101664.41;;;9.46;69.45
31044;BME280;17710;52.520;13.352;2024-02-28T06:09:18;101675.41;;;9.72;68.76
31044;BME280;17710;52.520;13.352;2024-02-28T06:11:44;101689.44;;;9.74;68.48
31044;BME280;17710;52.520;13.352;2024-02-28T06:14:10;101690.75;;;8.91;71.26
31044;BME280;17710;52.520;13.352;2024-02-28T06:16:37;101690.97;;;9.35;70.71
31044;BME280;17710;52.520;13.352;2024-02-28T06:19:03;101686.94;;;9.67;70.07
31044;BME280;17710;52.520;13.352;2024-02-28T06:21:30;101686.59;;;9.86;69.08
31044;BME280;17710;52.520;13.352;2024-02-28T06:23:57;101695.16;;;9.48;69.85
31044;BME280;17710;52.520;13.352;2024-02-28T06:26:24;101703.19;;;9.41;70.69
31044;BME280;17710;52.520;13.352;2024-02-28T06:28:50;101702.44;;;9.33;70.82
31044;BME280;17710;52.520;13.352;2024-02-28T06:31:18;101698.69;;;9.49;70.36
31044;BME280;17710;52.520;13.352;2024-02-28T06:33:45;101695.69;;;9.13;71.63
31044;BME280;17710;52.520;13.352;2024-02-28T06:36:11;101703.25;;;8.75;72.82
31044;BME280;17710;52.520;13.352;2024-02-28T06:38:38;101700.84;;;9.21;71.71
31044;BME280;17710;52.520;13.352;2024-02-28T06:41:06;101709.84;;;9.06;72.03
31044;BME280;17710;52.520;13.352;2024-02-28T06:43:33;101706.00;;;9.32;72.00
31044;BME280;17710;52.520;13.352;2024-02-28T06:45:59;101703.63;;;9.69;69.99
31044;BME280;17710;52.520;13.352;2024-02-28T06:48:26;101707.81;;;9.82;69.40
31044;BME280;17710;52.520;13.352;2024-02-28T06:50:52;101713.22;;;9.74;68.83
31044;BME280;17710;52.520;13.352;2024-02-28T06:53:19;101722.75;;;9.81;68.59
31044;BME280;17710;52.520;13.352;2024-02-28T06:55:45;101713.03;;;9.30;70.40
31044;BME280;17710;52.520;13.352;2024-02-28T06:58:15;101714.28;;;9.64;69.57
31044;BME280;17710;52.520;13.352;2024-02-28T07:00:41;101723.28;;;10.03;67.57
31044;BME280;17710;52.520;13.352;2024-02-28T07:03:08;101725.91;;;10.03;67.28
31044;BME280;17710;52.520;13.352;2024-02-28T07:05:34;101732.69;;;9.66;68.21
31044;BME280;17710;52.520;13.352;2024-02-28T07:08:01;101726.59;;;9.62;68.98
31044;BME280;17710;52.520;13.352;2024-02-28T07:10:27;101734.16;;;9.28;70.36
31044;BME280;17710;52.520;13.352;2024-02-28T07:12:53;101733.28;;;9.29;69.65
31044;BME280;17710;52.520;13.352;2024-02-28T07:15:21;101729.66;;;9.36;69.69
31044;BME280;17710;52.520;13.352;2024-02-28T07:17:48;101730.66;;;9.28;69.74
31044;BME280;17710;52.520;13.352;2024-02-28T07:20:14;101736.63;;;9.39;69.51
31044;BME280;17710;52.520;13.352;2024-02-28T07:22:42;101736.31;;;9.00;70.14
31044;BME280;17710;52.520;13.352;2024-02-28T07:25:09;101733.72;;;9.57;69.32
31044;BME280;17710;52.520;13.352;2024-02-28T07:27:35;101726.22;;;9.85;67.88
31044;BME280;17710;52.520;13.352;2024-02-28T07:30:02;101720.69;;;10.00;66.51
31044;BME280;17710;52.520;13.352;2024-02-28T07:32:30;101732.38;;;9.85;66.81
31044;BME280;17710;52.520;13.352;2024-02-28T07:34:59;101723.31;;;9.48;67.83
31044;BME280;17710;52.520;13.352;2024-02-28T07:37:26;101723.31;;;10.00;67.51
31044;BME280;17710;52.520;13.352;2024-02-28T07:39:52;101725.63;;;10.20;66.31
31044;BME280;17710;52.520;13.352;2024-02-28T07:42:19;101728.19;;;10.24;65.42
31044;BME280;17710;52.520;13.352;2024-02-28T07:44:45;101725.69;;;9.65;66.41
31044;BME280;17710;52.520;13.352;2024-02-28T07:47:11;101723.09;;;9.03;68.97
31044;BME280;17710;52.520;13.352;2024-02-28T07:49:40;101744.28;;;8.94;70.25
31044;BME280;17710;52.520;13.352;2024-02-28T07:52:07;101744.72;;;9.27;69.25
31044;BME280;17710;52.520;13.352;2024-02-28T07:54:33;101757.31;;;9.06;69.48
31044;BME280;17710;52.520;13.352;2024-02-28T07:57:02;101753.28;;;9.44;67.97
31044;BME280;17710;52.520;13.352;2024-02-28T07:59:28;101753.09;;;9.56;67.55
31044;BME280;17710;52.520;13.352;2024-02-28T08:01:54;101761.47;;;9.24;68.33
31044;BME280;17710;52.520;13.352;2024-02-28T08:04:21;101765.38;;;8.93;69.29
31044;BME280;17710;52.520;13.352;2024-02-28T08:06:49;101766.16;;;9.04;68.92
31044;BME280;17710;52.520;13.352;2024-02-28T08:09:15;101763.06;;;9.36;68.29
31044;BME280;17710;52.520;13.352;2024-02-28T08:11:41;101771.00;;;9.33;68.36
31044;BME280;17710;52.520;13.352;2024-02-28T08:14:08;101760.59;;;9.82;66.41
31044;BME280;17710;52.520;13.352;2024-02-28T08:16:35;101767.06;;;10.15;64.83
31044;BME280;17710;52.520;13.352;2024-02-28T08:19:02;101767.88;;;9.66;64.95
31044;BME280;17710;52.520;13.352;2024-02-28T08:21:28;101771.84;;;9.38;65.94
31044;BME280;17710;52.520;13.352;2024-02-28T08:23:56;101789.03;;;9.00;67.79
31044;BME280;17710;52.520;13.352;2024-02-28T08:26:23;101791.66;;;9.02;68.16
31044;BME280;17710;52.520;13.352;2024-02-28T08:28:49;101788.06;;;9.07;68.00
31044;BME280;17710;52.520;13.352;2024-02-28T08:31:16;101800.44;;;9.01;68.25
31044;BME280;17710;52.520;13.352;2024-02-28T08:33:42;101802.81;;;9.20;67.56
31044;BME280;17710;52.520;13.352;2024-02-28T08:36:08;101794.22;;;9.06;67.40
31044;BME280;17710;52.520;13.352;2024-02-28T08:38:35;101797.78;;;9.05;67.85
31044;BME280;17710;52.520;13.352;2024-02-28T08:41:05;101788.06;;;9.07;67.67
31044;BME280;17710;52.520;13.352;2024-02-28T08:43:32;101808.06;;;8.50;69.58
31044;BME280;17710;52.520;13.352;2024-02-28T08:45:58;101795.38;;;8.86;68.11
31044;BME280;17710;52.520;13.352;2024-02-28T08:48:25;101799.78;;;8.82;68.25
31044;BME280;17710;52.520;13.352;2024-02-28T08:50:51;101805.53;;;9.17;67.36
31044;BME280;17710;52.520;13.352;2024-02-28T08:53:18;101800.72;;;9.45;65.82
31044;BME280;17710;52.520;13.352;2024-02-28T08:55:44;101794.19;;;9.11;66.02
31044;BME280;17710;52.520;13.352;2024-02-28T08:58:12;101803.09;;;9.01;66.05
31044;BME280;17710;52.520;13.352;2024-02-28T09:00:38;101794.44;;;8.88;65.89
31044;BME280;17710;52.520;13.352;2024-02-28T09:03:05;101788.31;;;8.88;65.94
31044;BME280;17710;52.520;13.352;2024-02-28T09:05:31;101787.19;;;9.08;65.58
31044;BME280;17710;52.520;13.352;2024-02-28T09:07:58;101791.28;;;9.31;65.14
31044;BME280;17710;52.520;13.352;2024-02-28T09:10:24;101797.06;;;9.55;62.97
31044;BME280;17710;52.520;13.352;2024-02-28T09:12:51;101805.34;;;8.59;65.84
31044;BME280;17710;52.520;13.352;2024-02-28T09:15:19;101795.09;;;8.30;68.01
31044;BME280;17710;52.520;13.352;2024-02-28T09:17:45;101789.38;;;8.71;67.64
31044;BME280;17710;52.520;13.352;2024-02-28T09:20:12;101794.50;;;8.85;66.84
31044;BME280;17710;52.520;13.352;2024-02-28T09:22:38;101796.75;;;9.17;66.24
31044;BME280;17710;52.520;13.352;2024-02-28T09:25:06;101791.00;;;9.49;64.62
31044;BME280;17710;52.520;13.352;2024-02-28T09:27:34;101801.00;;;9.26;65.42
31044;BME280;17710;52.520;13.352;2024-02-28T09:30:00;101801.31;;;9.04;65.95
31044;BME280;17710;52.520;13.352;2024-02-28T09:32:29;101803.84;;;9.12;66.23
31044;BME280;17710;52.520;13.352;2024-02-28T09:34:55;101804.19;;;8.85;67.15
31044;BME280;17710;52.520;13.352;2024-02-28T09:37:21;101809.13;;;9.09;66.12
31044;BME280;17710;52.520;13.352;2024-02-28T09:39:49;101811.19;;;8.86;66.57
31044;BME280;17710;52.520;13.352;2024-02-28T09:42:16;101811.50;;;9.30;66.05
31044;BME280;17710;52.520;13.352;2024-02-28T09:44:42;101799.03;;;9.41;64.93
31044;BME280;17710;52.520;13.352;2024-02-28T09:47:10;101809.38;;;9.58;64.72
31044;BME280;17710;52.520;13.352;2024-02-28T09:49:41;101809.41;;;9.53;64.78
31044;BME280;17710;52.520;13.352;2024-02-28T09:52:07;101817.47;;;9.44;64.96
31044;BME280;17710;52.520;13.352;2024-02-28T09:54:34;101823.97;;;9.80;63.91
31044;BME280;17710;52.520;13.352;2024-02-28T09:57:00;101814.84;;;9.99;62.50
31044;BME280;17710;52.520;13.352;2024-02-28T09:59:27;101824.31;;;10.13;62.20
31044;BME280;17710;52.520;13.352;2024-02-28T10:01:56;101826.41;;;9.92;61.69
31044;BME280;17710;52.520;13.352;2024-02-28T10:04:26;101835.59;;;9.67;63.09
31044;BME280;17710;52.520;13.352;2024-02-28T10:06:54;101826.19;;;9.51;63.69
31044;BME280;17710;52.520;13.352;2024-02-28T10:09:20;101830.00;;;9.88;63.14
31044;BME280;17710;52.520;13.352;2024-02-28T10:11:47;101836.09;;;9.92;61.65
31044;BME280;17710;52.520;13.352;2024-02-28T10:14:17;101835.84;;;10.10;61.23
31044;BME280;17710;52.520;13.352;2024-02-28T10:16:45;101840.34;;;10.04;60.76
31044;BME280;17710;52.520;13.352;2024-02-28T10:19:11;101835.97;;;10.01;61.25
31044;BME280;17710;52.520;13.352;2024-02-28T10:21:38;101842.25;;;9.92;61.46
31044;BME280;17710;52.520;13.352;2024-02-28T10:24:06;101846.63;;;9.95;61.41
31044;BME280;17710;52.520;13.352;2024-02-28T10:26:32;101853.91;;;9.79;61.78
31044;BME280;17710;52.520;13.352;2024-02-28T10:29:03;101848.53;;;9.85;61.53
31044;BME280;17710;52.520;13.352;2024-02-28T10:31:32;101857.09;;;10.01;61.38
31044;BME280;17710;52.520;13.352;2024-02-28T10:34:00;101855.94;;;10.19;60.15
31044;BME280;17710;52.520;13.352;2024-02-28T10:36:29;101861.38;;;10.10;60.37
31044;BME280;17710;52.520;13.352;2024-02-28T10:38:57;101859.94;;;9.86;61.31
31044;BME280;17710;52.520;13.352;2024-02-28T10:41:26;101863.16;;;9.46;62.51
31044;BME280;17710;52.520;13.352;2024-02-28T10:43:54;101858.09;;;9.30;63.30
31044;BME280;17710;52.520;13.352;2024-02-28T10:46:20;101863.63;;;9.10;63.90
31044;BME280;17710;52.520;13.352;2024-02-28T10:48:49;101860.78;;;9.27;63.90
31044;BME280;17710;52.520;13.352;2024-02-28T10:51:20;101863.22;;;9.42;63.41
31044;BME280;17710;52.520;13.352;2024-02-28T10:53:50;101861.06;;;9.02;64.15
31044;BME280;17710;52.520;13.352;2024-02-28T10:56:21;101865.00;;;9.40;62.80
31044;BME280;17710;52.520;13.352;2024-02-28T10:58:51;101863.19;;;9.45;62.14
31044;BME280;17710;52.520;13.352;2024-02-28T11:01:18;101858.97;;;9.93;61.13
31044;BME280;17710;52.520;13.352;2024-02-28T11:03:47;101859.25;;;9.75;61.42
31044;BME280;17710;52.520;13.352;2024-02-28T11:06:17;101869.06;;;9.65;61.40
31044;BME280;17710;52.520;13.352;2024-02-28T11:08:45;101866.75;;;9.41;61.48
31044;BME280;17710;52.520;13.352;2024-02-28T11:11:13;101871.38;;;9.25;61.62
31044;BME280;17710;52.520;13.352;2024-02-28T11:13:52;101871.91;;;8.75;63.60
31044;BME280;17710;52.520;13.352;2024-02-28T11:16:29;101872.03;;;8.66;63.20
31044;BME280;17710;52.520;13.352;2024-02-28T11:18:56;101872.63;;;8.92;62.10
31044;BME280;17710;52.520;13.352;2024-02-28T11:21:24;101870.00;;;9.59;60.18
31044;BME280;17710;52.520;13.352;2024-02-28T11:23:57;101880.47;;;9.67;58.71
31044;BME280;17710;52.520;13.352;2024-02-28T11:26:24;101872.53;;;9.70;58.63
31044;BME280;17710;52.520;13.352;2024-02-28T11:28:54;101880.28;;;9.13;59.69
31044;BME280;17710;52.520;13.352;2024-02-28T11:31:20;101874.97;;;9.18;59.84
31044;BME280;17710;52.520;13.352;2024-02-28T11:33:47;101872.97;;;9.37;59.59
31044;BME280;17710;52.520;13.352;2024-02-28T11:36:14;101879.47;;;9.77;58.48
31044;BME280;17710;52.520;13.352;2024-02-28T11:38:41;101877.25;;;10.07;56.69
31044;BME280;17710;52.520;13.352;2024-02-28T11:41:07;101872.91;;;10.03;55.75
31044;BME280;17710;52.520;13.352;2024-02-28T11:43:34;101872.56;;;10.27;55.03
31044;BME280;17710;52.520;13.352;2024-02-28T11:46:07;101873.25;;;10.38;53.56
31044;BME280;17710;52.520;13.352;2024-02-28T11:48:34;101882.16;;;10.31;53.10
31044;BME280;17710;52.520;13.352;2024-02-28T11:51:00;101879.00;;;10.06;53.63
31044;BME280;17710;52.520;13.352;2024-02-28T11:53:27;101884.06;;;9.63;54.70
31044;BME280;17710;52.520;13.352;2024-02-28T11:55:54;101880.41;;;9.72;55.26
31044;BME280;17710;52.520;13.352;2024-02-28T11:58:22;101882.63;;;9.99;53.97
31044;BME280;17710;52.520;13.352;2024-02-28T12:00:49;101882.69;;;9.96;54.44
31044;BME280;17710;52.520;13.352;2024-02-28T12:03:20;101887.59;;;9.59;56.17
31044;BME280;17710;52.520;13.352;2024-02-28T12:05:46;101883.38;;;9.49;55.83
31044;BME280;17710;52.520;13.352;2024-02-28T12:08:12;101886.41;;;9.17;56.37
31044;BME280;17710;52.520;13.352;2024-02-28T12:10:39;101889.25;;;9.69;55.87
31044;BME280;17710;52.520;13.352;2024-02-28T12:13:06;101883.75;;;9.18;56.76
31044;BME280;17710;52.520;13.352;2024-02-28T12:15:33;101885.28;;;9.36;57.17
31044;BME280;17710;52.520;13.352;2024-02-28T12:17:59;101882.72;;;9.32;56.47
31044;BME280;17710;52.520;13.352;2024-02-28T12:20:27;101880.41;;;9.01;57.38
31044;BME280;17710;52.520;13.352;2024-02-28T12:22:53;101880.47;;;8.98;58.07
31044;BME280;17710;52.520;13.352;2024-02-28T12:25:20;101872.03;;;8.66;58.41
31044;BME280;17710;52.520;13.352;2024-02-28T12:27:46;101865.13;;;8.48;59.50
31044;BME280;17710;52.520;13.352;2024-02-28T12:30:13;101866.56;;;8.83;58.90
31044;BME280;17710;52.520;13.352;2024-02-28T12:32:39;101866.00;;;8.53;59.49
31044;BME280;17710;52.520;13.352;2024-02-28T12:35:07;101874.75;;;8.54;59.57
31044;BME280;17710;52.520;13.352;2024-02-28T12:37:34;101876.44;;;9.39;56.88
31044;BME280;17710;52.520;13.352;2024-02-28T12:40:01;101880.16;;;9.90;54.81
31044;BME280;17710;52.520;13.352;2024-02-28T12:42:30;101873.94;;;9.92;53.37
31044;BME280;17710;52.520;13.352;2024-02-28T12:44:56;101876.25;;;10.14;52.77